Fairbanks, AK

2:10 PM AKDT on September 21, 2014 (GMT -0800)
Ladd Army Air Field | Change Station
CLOSE
Current Station
Airport
Location: Fairbanks Ft. Wainwright,
Elevation: 453 ft
Nearby Weather Stations

Elev 453 ft 64.84 °N, 147.61 °W | Updated 14 minutes ago

Light Rain
Light Rain
42 °F
Feels Like 36 °F
N
10
Wind Variable Wind from West

Today
High -- | Low -- °F
--% Chance of Precip.
Yesterday
High -- | Low -- °F
Precip. -- in
7:31 AM 7:54 PM
Waning Crescent, 5% visible
Pressure 29.66 in
Visibility 10.0 miles
Clouds Scattered Clouds 1900 ft
Mostly Cloudy 2700 ft
Overcast 4500 ft
Windchill 36 °F
Dew Point 34 °F
Humidity 73%
Rainfall 0.18 in
Snow Depth 0 in , 1 in , 1 in
UV 1 out of 12
Pollen Not available.
Air Quality Not available.
Flu Activity Not available.
METAR PAFB 212156Z AUTO 28009KT 10SM -RA SCT019 BKN027 OVC045 06/01 A2964 RMK RAB55 SLP042 P0000 T00560011 VIA AUTODIAL

More Conditions Fewer Conditions

Pressure 29.66 in
Visibility 10.0 miles
Clouds Scattered Clouds 1900 ft
Mostly Cloudy 2700 ft
Overcast 4500 ft
Windchill 36 °F
Dew Point 34 °F
Humidity 73%
Rainfall 0.18 in
Snow Depth 0 in , 1 in , 1 in
UV 1 out of 12
Pollen Not available.
Air Quality Not available.
Flu Activity Not available.
METAR PAFB 212156Z AUTO 28009KT 10SM -RA SCT019 BKN027 OVC045 06/01 A2964 RMK RAB55 SLP042 P0000 T00560011 VIA AUTODIAL

More Conditions Fewer Conditions

10-Day Weather Forecast

Almanac

Astronomy

Sep. 21, 2014 Rise Set
Actual Time 7:31 AM AKDT 7:54 PM AKDT
Civil Twilight 6:41 AM AKDT 8:43 PM AKDT
Nautical Twilight 5:41 AM AKDT 9:44 PM AKDT
Astronomical Twilight 4:29 AM AKDT 10:54 PM AKDT
Moon 4:35 AM AKDT 7:02 PM AKDT
Length of Visible Light 14h 01m
Length of Day
12h 23m
Tomorrow will be 6m 37s shorter.
Waning Crescent, 5% of the Moon is Illuminated
Today
Waning Crescent
Sep 24
New
Oct 1
First Quarter
Oct 8
Full
Oct 15
Last Quarter

Today's Extremes

State Highs State Lows

Community

WunderPhotos

Upload Photos

1,755,269 photos uploaded!

WunderBlogs® & News

Nearby

Snow Depth

Station Depth Elevation
Munson Ridge 0 in 3100 ft
MF Bradley River 1 in 2300 ft
Coldfoot 1 in 1040 ft
Point Mackenzie 1 in 200 ft
Upper Chena 1 in 2850 ft

Earthquake Activity

City Distance Mag. Time & Date
No recent earthquake activity has been reported nearby.
Minimum magnitude displayed is 2.5.

Coastal Water Temperatures

Place Temperature
No Stations Reporting

Nearby Weather Stations